Chandler Muni Information

FAA: CHD - ICAO: KCHD

Chandler Muni (Airport) Location

State Arizona
County Maricopa
City Chandler
Chandler Muni (Airport) is 3 miles southeast of Chandler, AZ.
Latitude 33-16-08.8000N
Longitude 111-48-40.0000W
Elevation 1,243ft

Chandler Muni METARs

METAR KCHD 292347Z 30006KT 10SM CLR 28/M03 A2999
Altimeter 29.99"
Temperature 28.0°C (82.4°F)
Wind 300° at 6KT
Clouds Skies are clear.
Visibility 10.0mi
Time observed: 2021-11-29T23:47:00Z

Chandler Muni (Airport) Details

Status Operational
Activation N/A
Ownership Public
Usage Public
Chart PHOENIX
ATC on-site Yes
Beacon schedule sunset-sunrise
Beacon color clear green

Chandler Muni (Airport) Contacts

Owner CITY OF CHANDLER
Owner address 175 S. ARIZONA AVE, CHANDLER, AZ 85225
Owner phone 480-782-2200
Manager CHRIS ANDRES
Manager address CHANDLER MUNICIPAL AIRPORT, MAIL STOP 802, PO BOX 4008, CHANDLER, AZ 85244
Manager phone 480-782-3540

Chandler Muni Radio Frequencies

Chandler Muni (Airport) Radio Frequencies

UNICOM 122.95
Common traffic advisory frequency (CTAF) 126.1